createdAt,value
2016-08-02T00:00:44.324Z,13.9
2016-08-02T00:03:58.451Z,13.9
2016-08-02T00:07:12.395Z,13.8
2016-08-02T00:10:26.352Z,13.8
2016-08-02T00:13:45.381Z,13.8
2016-08-02T00:16:49.626Z,13.7
2016-08-02T00:20:03.466Z,13.7
2016-08-02T00:23:17.208Z,13.7
2016-08-02T00:26:31.358Z,13.6
2016-08-02T00:29:45.206Z,13.6
2016-08-02T00:32:59.156Z,13.6
2016-08-02T00:36:13.020Z,13.5
2016-08-02T00:39:26.995Z,13.5
2016-08-02T00:42:45.963Z,13.5
2016-08-02T00:45:50.159Z,13.4
2016-08-02T00:49:03.872Z,13.4
2016-08-02T00:52:17.945Z,13.4
2016-08-02T00:55:31.669Z,13.3
2016-08-02T00:58:45.652Z,13.2
2016-08-02T01:01:59.481Z,13.2
2016-08-02T01:05:13.539Z,13.2
2016-08-02T01:08:27.450Z,13.1
2016-08-02T01:11:46.288Z,13.1
2016-08-02T01:14:50.209Z,13.1
2016-08-02T01:18:03.945Z,13.1
2016-08-02T01:21:17.737Z,13.1
2016-08-02T01:24:31.527Z,13.1
2016-08-02T01:27:45.588Z,13.1
2016-08-02T01:30:59.484Z,13
2016-08-02T01:34:13.075Z,13
2016-08-02T01:37:26.821Z,13
2016-08-02T01:40:45.701Z,13
2016-08-02T01:43:47.765Z,13
2016-08-02T01:47:03.427Z,13
2016-08-02T01:50:17.076Z,13
2016-08-02T01:53:30.918Z,12.9
2016-08-02T01:56:44.777Z,12.9
2016-08-02T01:59:58.515Z,12.9
2016-08-02T02:03:12.185Z,12.8
2016-08-02T02:06:25.984Z,12.8
2016-08-02T02:09:44.627Z,12.8
2016-08-02T02:12:48.589Z,12.8
2016-08-02T02:16:02.376Z,12.7
2016-08-02T02:19:16.289Z,12.7
2016-08-02T02:22:30.277Z,12.7
2016-08-02T02:25:44.340Z,12.7
2016-08-02T02:28:58.072Z,12.7
2016-08-02T02:32:11.958Z,12.7
2016-08-02T02:35:25.717Z,12.6
2016-08-02T02:38:44.670Z,12.6
2016-08-02T02:41:48.663Z,12.5
2016-08-02T02:45:02.193Z,12.4
2016-08-02T02:48:16.145Z,12.4
2016-08-02T02:51:29.385Z,12.4
2016-08-02T02:54:47.649Z,12.4
2016-08-02T02:57:51.856Z,12.4
2016-08-02T03:01:05.563Z,12.4
2016-08-02T03:04:19.182Z,12.4
2016-08-02T03:07:32.924Z,12.3
2016-08-02T03:10:46.681Z,12.3
2016-08-02T03:14:00.653Z,12.3
2016-08-02T03:17:14.379Z,12.2
2016-08-02T03:20:28.204Z,12.1
2016-08-02T03:23:46.899Z,12.1
2016-08-02T03:26:50.929Z,12
2016-08-02T03:30:04.420Z,12
2016-08-02T03:33:18.383Z,12
2016-08-02T03:36:36.294Z,11.9
2016-08-02T03:39:45.637Z,11.9
2016-08-02T03:42:57.434Z,11.9
2016-08-02T03:46:13.164Z,12
2016-08-02T03:49:26.960Z,12
2016-08-02T03:52:45.852Z,11.9
2016-08-02T03:55:49.822Z,12
2016-08-02T03:59:03.588Z,12
2016-08-02T04:02:17.526Z,12
2016-08-02T04:05:31.375Z,12
2016-08-02T04:08:45.005Z,12
2016-08-02T04:11:58.916Z,12
2016-08-02T04:15:10.619Z,12.1
2016-08-02T04:18:24.307Z,12
2016-08-02T04:21:42.882Z,12.1
2016-08-02T04:24:47.015Z,12.1
2016-08-02T04:28:00.922Z,12.2
2016-08-02T04:31:11.977Z,12.2
2016-08-02T04:34:24.050Z,12.3
2016-08-02T04:40:48.567Z,12.3
2016-08-02T04:44:02.347Z,12.4
2016-08-02T04:47:16.204Z,12.4
2016-08-02T04:50:30.064Z,12.5
2016-08-02T04:53:48.925Z,12.5
2016-08-02T04:56:53.098Z,12.5
2016-08-02T05:00:07.048Z,12.5
2016-08-02T05:03:20.837Z,12.5
2016-08-02T05:06:39.452Z,12.6
2016-08-02T05:09:48.603Z,12.6
2016-08-02T05:12:50.519Z,12.7
2016-08-02T05:16:06.435Z,12.8
2016-08-02T05:19:20.387Z,12.9
2016-08-02T05:22:34.220Z,13
2016-08-02T05:25:48.114Z,13.2
2016-08-02T05:29:02.327Z,13.5
2016-08-02T05:32:15.958Z,13.8
2016-08-02T05:35:29.926Z,14.1
2016-08-02T05:38:49.109Z,14.5
2016-08-02T05:41:53.602Z,14.7
2016-08-02T05:45:07.522Z,14.8
2016-08-02T05:48:21.391Z,14.9
2016-08-02T05:54:44.890Z,15
2016-08-02T05:57:59.059Z,15.2
2016-08-02T06:01:13.322Z,15.5
2016-08-02T06:04:27.609Z,15.7
2016-08-02T06:07:46.770Z,15.7
2016-08-02T06:10:51.265Z,15.6
2016-08-02T06:14:05.603Z,15.7
2016-08-02T06:17:19.791Z,15.8
2016-08-02T06:20:33.699Z,15.8
2016-08-02T06:23:47.532Z,15.7
2016-08-02T06:27:01.633Z,15.6
2016-08-02T06:30:15.765Z,15.5
2016-08-02T06:33:29.874Z,15.4
2016-08-02T06:36:44.197Z,15.4
2016-08-02T06:39:58.225Z,15.3
2016-08-02T06:43:12.444Z,15.3
2016-08-02T06:46:26.600Z,15.4
2016-08-02T06:49:45.659Z,15.3
2016-08-02T06:52:49.989Z,15.3
2016-08-02T06:56:04.169Z,15.2
2016-08-02T06:59:17.965Z,15.2
2016-08-02T07:02:32.028Z,15.1
2016-08-02T07:05:45.237Z,15.1
2016-08-02T07:08:59.331Z,15
2016-08-02T07:12:13.496Z,14.9
2016-08-02T07:15:27.438Z,14.9
2016-08-02T07:18:46.633Z,14.9
2016-08-02T07:21:50.998Z,14.9
2016-08-02T07:25:04.331Z,14.9
2016-08-02T07:28:18.427Z,14.8
2016-08-02T07:31:32.410Z,14.8
2016-08-02T07:34:46.488Z,14.8
2016-08-02T07:38:00.624Z,14.8
2016-08-02T07:41:13.838Z,14.8
2016-08-02T07:44:27.900Z,14.7
2016-08-02T07:47:46.926Z,14.7
2016-08-02T07:50:50.958Z,14.8
2016-08-02T07:54:04.955Z,14.8
2016-08-02T07:57:15.468Z,14.8
2016-08-02T08:00:29.501Z,14.9
2016-08-02T08:03:48.511Z,14.9
2016-08-02T08:06:53.095Z,14.9
2016-08-02T08:10:06.991Z,14.9
2016-08-02T08:13:18.611Z,14.9
2016-08-02T08:16:32.781Z,15
2016-08-02T08:19:46.707Z,15
2016-08-02T08:23:00.919Z,14.9
2016-08-02T08:26:15.098Z,14.9
2016-08-02T08:29:29.009Z,14.9
2016-08-02T08:32:48.233Z,14.9
2016-08-02T08:35:52.604Z,14.9
2016-08-02T08:39:06.758Z,14.9
2016-08-02T08:42:21.029Z,14.9
2016-08-02T08:45:39.989Z,14.9
2016-08-02T08:48:49.216Z,15
2016-08-02T08:51:53.570Z,15
2016-08-02T08:58:22.144Z,15.2
2016-08-02T09:01:33.972Z,15.3
2016-08-02T09:04:47.822Z,15.4
2016-08-02T09:08:00.132Z,15.5
2016-08-02T09:11:16.137Z,15.6
2016-08-02T09:14:30.336Z,15.7
2016-08-02T09:17:44.535Z,15.7
2016-08-02T09:20:58.764Z,15.7
2016-08-02T09:24:12.687Z,15.8
2016-08-02T09:27:27.028Z,15.7
2016-08-02T09:30:45.889Z,15.7
2016-08-02T09:33:50.115Z,15.7
2016-08-02T09:37:03.750Z,15.7
2016-08-02T09:43:31.435Z,15.6
2016-08-02T09:46:45.284Z,15.6
2016-08-02T09:49:59.028Z,15.5
2016-08-02T09:53:12.784Z,15.5
2016-08-02T09:56:26.654Z,15.5
2016-08-02T09:59:45.481Z,15.4
2016-08-02T10:02:49.627Z,15.4
2016-08-02T10:06:00.015Z,15.3
2016-08-02T10:09:14.226Z,15.3
2016-08-02T10:12:27.981Z,15.3
2016-08-02T10:15:46.779Z,15.3
2016-08-02T10:18:50.774Z,15.3
2016-08-02T10:22:04.483Z,15.3
2016-08-02T10:25:18.033Z,15.3
2016-08-02T10:28:31.473Z,15.3
2016-08-02T10:31:45.203Z,15.3
2016-08-02T10:34:58.963Z,15.3
2016-08-02T10:38:12.573Z,15.3
2016-08-02T10:41:26.386Z,15.3
2016-08-02T10:44:45.147Z,15.3
2016-08-02T10:47:49.307Z,15.4
2016-08-02T10:51:03.238Z,15.4
2016-08-02T10:54:17.185Z,15.4
2016-08-02T10:57:31.108Z,15.5
2016-08-02T11:00:44.899Z,15.5
2016-08-02T11:03:58.796Z,15.5
2016-08-02T11:07:10.612Z,15.6
2016-08-02T11:13:45.734Z,15.7
2016-08-02T11:16:49.899Z,15.7
2016-08-02T11:20:03.552Z,15.7
2016-08-02T11:23:17.204Z,15.8
2016-08-02T11:26:31.042Z,15.8
2016-08-02T11:29:44.876Z,15.8
2016-08-02T11:32:58.710Z,15.8
2016-08-02T11:36:12.678Z,15.8
2016-08-02T11:39:26.506Z,15.8
2016-08-02T11:42:45.528Z,15.8
2016-08-02T11:45:49.550Z,15.7
2016-08-02T11:49:03.296Z,15.7
2016-08-02T11:52:17.084Z,15.7
2016-08-02T11:55:30.912Z,15.6
2016-08-02T11:58:44.850Z,15.6
2016-08-02T12:01:58.774Z,15.5
2016-08-02T12:05:12.640Z,15.4
2016-08-02T12:08:26.274Z,15.3
2016-08-02T12:11:44.805Z,15.1
2016-08-02T12:14:48.734Z,15
2016-08-02T12:18:03.197Z,15
2016-08-02T12:21:12.633Z,15
2016-08-02T12:24:26.598Z,15
2016-08-02T12:27:45.505Z,14.9
2016-08-02T12:30:49.439Z,14.9
2016-08-02T12:34:03.320Z,14.9
2016-08-02T12:37:17.025Z,14.9
2016-08-02T12:40:30.818Z,14.8
2016-08-02T12:43:46.954Z,14.8
2016-08-02T12:46:50.960Z,14.8
2016-08-02T12:50:04.829Z,14.8
2016-08-02T12:53:18.738Z,14.9
2016-08-02T12:56:32.564Z,14.9
2016-08-02T12:59:46.283Z,15
2016-08-02T13:02:59.566Z,15
2016-08-02T13:06:17.597Z,15.1
2016-08-02T13:09:27.177Z,15.2
2016-08-02T13:12:46.082Z,15.3
2016-08-02T13:15:50.180Z,15.3
2016-08-02T13:19:04.085Z,15.4
2016-08-02T13:22:17.268Z,15.4
2016-08-02T13:25:30.937Z,15.5
2016-08-02T13:28:49.406Z,15.6
2016-08-02T13:31:53.380Z,15.6
2016-08-02T13:35:07.101Z,15.7
2016-08-02T13:38:20.929Z,15.7
2016-08-02T13:41:31.877Z,15.8
2016-08-02T13:44:45.643Z,15.8
2016-08-02T13:47:59.488Z,15.9
2016-08-02T13:51:13.311Z,16
2016-08-02T13:54:26.943Z,16
2016-08-02T13:57:45.867Z,16.1
2016-08-02T14:00:48.247Z,16.1
2016-08-02T14:04:04.177Z,16.1
2016-08-02T14:07:17.959Z,16.1
2016-08-02T14:10:31.872Z,16.1
2016-08-02T14:13:45.904Z,16.2
2016-08-02T14:16:59.966Z,16.2
2016-08-02T14:20:14.221Z,16.2
2016-08-02T14:23:28.003Z,16.2
2016-08-02T14:26:46.549Z,16.2
2016-08-02T14:29:50.751Z,16.2
2016-08-02T14:33:03.040Z,16.2
2016-08-02T14:36:17.017Z,16.2
2016-08-02T14:39:30.567Z,16.2
2016-08-02T14:42:48.889Z,16.2
2016-08-02T14:45:52.922Z,16.3
2016-08-02T14:49:06.509Z,16.3
2016-08-02T14:52:20.284Z,16.3
2016-08-02T14:55:34.250Z,16.3
2016-08-02T14:58:47.749Z,16.3
2016-08-02T15:02:01.807Z,16.3
2016-08-02T15:05:15.745Z,16.4
2016-08-02T15:08:29.426Z,16.4
2016-08-02T15:11:47.928Z,16.4
2016-08-02T15:14:49.996Z,16.4
2016-08-02T15:18:05.999Z,16.4
2016-08-02T15:21:19.635Z,16.4
2016-08-02T15:24:33.317Z,16.4
2016-08-02T15:27:47.249Z,16.3
2016-08-02T15:31:01.090Z,16.3
2016-08-02T15:34:14.032Z,16.3
2016-08-02T15:37:27.951Z,16.2
2016-08-02T15:40:46.972Z,16.1
2016-08-02T15:43:51.049Z,16.1
2016-08-02T15:47:04.713Z,16
2016-08-02T15:50:22.546Z,16
2016-08-02T15:53:31.921Z,15.9
2016-08-02T15:56:45.723Z,15.9
2016-08-02T15:59:59.630Z,15.8
2016-08-02T16:03:13.364Z,15.8
2016-08-02T16:06:27.199Z,15.8
2016-08-02T16:09:46.053Z,15.7
2016-08-02T16:12:50.140Z,15.7
2016-08-02T16:16:04.161Z,15.7
2016-08-02T16:19:18.140Z,15.7
2016-08-02T16:22:31.660Z,15.7
2016-08-02T16:25:45.302Z,15.7
2016-08-02T16:28:59.001Z,15.7
2016-08-02T16:32:12.865Z,15.6
2016-08-02T16:35:26.668Z,15.6
2016-08-02T16:38:45.688Z,15.6
2016-08-02T16:41:49.841Z,15.5
2016-08-02T16:45:03.932Z,15.5
2016-08-02T16:48:17.696Z,15.5
2016-08-02T16:51:31.580Z,15.4
2016-08-02T16:54:45.217Z,15.4
2016-08-02T16:57:59.126Z,15.3
2016-08-02T17:01:12.854Z,15.3
2016-08-02T17:04:26.731Z,15.2
2016-08-02T17:07:45.644Z,15.2
2016-08-02T17:10:49.695Z,15.2
2016-08-02T17:14:03.504Z,15.2
2016-08-02T17:17:17.242Z,15.1
2016-08-02T17:20:30.591Z,15.1
2016-08-02T17:23:49.561Z,15.1
2016-08-02T17:26:53.782Z,15.1
2016-08-02T17:30:05.699Z,15.1
2016-08-02T17:33:19.236Z,15.1
2016-08-02T17:36:32.863Z,15.1
2016-08-02T17:39:50.043Z,15.1
2016-08-02T17:42:54.117Z,15.1
2016-08-02T17:46:07.787Z,15.1
2016-08-02T17:49:21.543Z,15
2016-08-02T17:52:39.731Z,15
2016-08-02T17:55:49.046Z,15.1
2016-08-02T17:58:52.875Z,15.1
2016-08-02T18:02:06.634Z,15.1
2016-08-02T18:05:20.459Z,15.1
2016-08-02T18:08:34.167Z,15.2
2016-08-02T18:11:47.600Z,15.2
2016-08-02T18:15:01.239Z,15.1
2016-08-02T18:18:14.604Z,15.1
2016-08-02T18:21:27.713Z,15.1
2016-08-02T18:24:46.220Z,15
2016-08-02T18:27:50.237Z,15
2016-08-02T18:31:03.897Z,15
2016-08-02T18:34:17.215Z,15
2016-08-02T18:37:30.617Z,15
2016-08-02T18:40:49.089Z,15
2016-08-02T18:43:52.854Z,15
2016-08-02T18:47:06.572Z,15
2016-08-02T18:50:20.225Z,15
2016-08-02T18:53:34.018Z,15
2016-08-02T18:56:47.248Z,14.9
2016-08-02T19:00:01.021Z,14.9
2016-08-02T19:03:10.971Z,14.9
2016-08-02T19:06:24.417Z,14.9
2016-08-02T19:09:42.832Z,14.9
2016-08-02T19:12:46.855Z,14.8
2016-08-02T19:16:00.445Z,14.8
2016-08-02T19:19:14.260Z,14.8
2016-08-02T19:22:28.066Z,14.8
2016-08-02T19:25:46.902Z,14.8
2016-08-02T19:28:50.838Z,14.8
2016-08-02T19:32:04.610Z,14.7
2016-08-02T19:35:18.020Z,14.7
2016-08-02T19:38:32.043Z,14.7
2016-08-02T19:41:45.831Z,14.7
2016-08-02T19:44:57.317Z,14.7
2016-08-02T19:48:11.150Z,14.7
2016-08-02T19:51:24.495Z,14.7
2016-08-02T19:54:43.371Z,14.6
2016-08-02T19:57:47.504Z,14.6
2016-08-02T20:01:00.893Z,14.6
2016-08-02T20:04:14.491Z,14.6
2016-08-02T20:07:28.401Z,14.6
2016-08-02T20:10:47.135Z,14.5
2016-08-02T20:13:51.175Z,14.5
2016-08-02T20:17:04.719Z,14.5
2016-08-02T20:20:17.905Z,14.5
2016-08-02T20:23:31.504Z,14.5
2016-08-02T20:26:45.196Z,14.4
2016-08-02T20:29:58.740Z,14.4
2016-08-02T20:33:12.504Z,14.5
2016-08-02T20:36:23.819Z,14.4
2016-08-02T20:39:42.519Z,14.4
2016-08-02T20:42:46.576Z,14.4
2016-08-02T20:46:00.475Z,14.4
2016-08-02T20:49:14.394Z,14.4
2016-08-02T20:52:27.705Z,14.4
2016-08-02T20:55:46.521Z,14.4
2016-08-02T20:58:50.561Z,14.4
2016-08-02T21:02:04.359Z,14.4
2016-08-02T21:05:18.320Z,14.4
2016-08-02T21:08:31.952Z,14.4
2016-08-02T21:11:45.953Z,14.3
2016-08-02T21:14:59.846Z,14.3
2016-08-02T21:18:13.157Z,14.3
2016-08-02T21:21:26.732Z,14.3
2016-08-02T21:24:45.406Z,14.3
2016-08-02T21:27:49.404Z,14.3
2016-08-02T21:31:03.084Z,14.3
2016-08-02T21:34:16.619Z,14.3
2016-08-02T21:37:30.144Z,14.3
2016-08-02T21:40:48.761Z,14.3
2016-08-02T21:43:52.712Z,14.3
2016-08-02T21:47:06.515Z,14.3
2016-08-02T21:50:20.470Z,14.3
2016-08-02T21:53:34.392Z,14.3
2016-08-02T21:56:48.355Z,14.3
2016-08-02T22:00:01.090Z,14.3
2016-08-02T22:03:14.823Z,14.3
2016-08-02T22:06:28.559Z,14.3
2016-08-02T22:09:47.245Z,14.3
2016-08-02T22:12:51.123Z,14.3
2016-08-02T22:16:04.670Z,14.3
2016-08-02T22:19:18.447Z,14.4
2016-08-02T22:22:30.465Z,14.3
2016-08-02T22:25:46.303Z,14.3
2016-08-02T22:28:59.862Z,14.3
2016-08-02T22:32:10.717Z,14.3
2016-08-02T22:35:25.780Z,14.3
2016-08-02T22:38:44.443Z,14.3
2016-08-02T22:41:48.499Z,14.3
2016-08-02T22:45:01.774Z,14.2
2016-08-02T22:48:15.251Z,14.3
2016-08-02T22:51:28.977Z,14.3
2016-08-02T22:54:47.838Z,14.3
2016-08-02T22:57:52.024Z,14.3
2016-08-02T23:01:04.990Z,14.3
2016-08-02T23:04:18.645Z,14.4
2016-08-02T23:07:32.437Z,14.4
2016-08-02T23:10:46.178Z,14.3
2016-08-02T23:13:59.813Z,14.3
2016-08-02T23:17:11.229Z,14.3
2016-08-02T23:20:24.728Z,14.3
2016-08-02T23:23:43.443Z,14.3
2016-08-02T23:26:47.341Z,14.3
2016-08-02T23:30:00.848Z,14.2
2016-08-02T23:33:14.422Z,14.2
2016-08-02T23:36:28.351Z,14.2
2016-08-02T23:39:44.480Z,14.2
2016-08-02T23:42:48.256Z,14.2
2016-08-02T23:46:01.973Z,14.2
2016-08-02T23:49:15.492Z,14.2
2016-08-02T23:52:29.246Z,14.2
2016-08-02T23:55:47.860Z,14.2
2016-08-02T23:58:51.757Z,14.2
